メインページ
METAR-TAF:

METAR-TAF

空港 :

ナナイモ空港

ナナイモ, ブリティッシュコロンビア州, カナダ

緯度: 49-03N, 経度: 123-52W, 海抜: 28m

現時点の気象観測

当レポートは15分前の16:00(UTC)に作成
無風
気温 1°C
湿度 100%
気圧 1014 hPa
視程: 4.8km
高度800ftの千切れ雲あり
高度1300ftの曇り
小雨, 靄

METAR: CYCD 181600Z 00000KT 3SM -RA BR BKN008 OVC013 01/01 A2995 RMK SF6SC2 CIG RAG SLP145

時間: 08:15 (16:15 UTC)

予報

当レポートは37分前の15:38(UTC)に作成
予報は18日の 16時(UTC)から 19日の 04時(UTC)まで有効
変向風 3kt
視程: 10km
高度500ftの雲は散在している
高度1500ftの曇り
18日の 16時(UTC)から 18日の 18時(UTC)まで一時的に
視程: 1.6km
高度400ftの曇り
弱いにわか雨, 雪, 靄
18日の 1800時(UTC)から
南東の風 8kt
視程: 10km
高度500ftの雲は散在している
高度2500ftの曇り
18日の 18時(UTC)から 19日の 04時(UTC)まで一時的に
視程: 3.2km
高度500ftの曇り
小雨, 靄

TAF: CYCD 181538Z 1816/1904 VRB03KT P6SM SCT005 OVC015 TEMPO 1816/1818 1SM -SHRASN BR OVC004 FM181800 13008KT P6SM SCT005 OVC025 TEMPO 1818/1904 2SM -RA BR OVC005 RMK NXT FCST BY 181800Z

4,000以上の空港の気象観測と天気予報(METAR報とTAF報)

利用可能な観測所は地図上に黄色い丸と赤い丸で示す。

丸の上にカーソルを重ねると観測所名を参照できる。

次にクリックすると気象観測と天気予報を参照できる。

マップの切り替え:黒色「×」印の緑ボタンをクリックして拡大、「-」印の緑ボタンをクリックして縮小、緑色の三角印をクリックして隣りの地図に切り替え


METAR-TAF: